Time;durP1;ratioP1;P1;durP2;ratioP2;P2;SDS_P1;SDS_P2;PMS_P1;PMS_P2;Temp;Humidity;BMP_temperature;BMP_pressure;BME280_temperature;BME280_humidity;BME280_pressure;Samples;Min_cycle;Max_cycle;Signal;HPM_P1;HPM_P2
2023/07/02 00:03:57;;;;;;;10.23;5.60;;;;;;;-147.65;100.00;57646.63;10364179;28;20117;-85
2023/07/02 00:08:58;;;;;;;15.68;6.93;;;;;;;-147.65;100.00;57646.63;10365187;28;20485;-85
2023/07/02 00:13:58;;;;;;;12.02;5.90;;;;;;;-147.65;100.00;57646.63;10363858;28;20107;-84
2023/07/02 00:18:59;;;;;;;13.65;6.53;;;;;;;-147.65;100.00;57646.63;10363082;28;20034;-83
2023/07/02 00:24:00;;;;;;;11.80;5.88;;;;;;;-147.65;100.00;57646.63;10365030;28;20053;-83
2023/07/02 00:29:00;;;;;;;15.07;7.20;;;;;;;-147.65;100.00;57646.63;10363489;28;20042;-84
2023/07/02 00:34:01;;;;;;;11.43;5.82;;;;;;;-147.65;100.00;57646.63;10360802;28;20116;-84
2023/07/02 00:39:02;;;;;;;11.07;5.60;;;;;;;-147.65;100.00;57646.63;10362140;28;20038;-85
2023/07/02 00:44:02;;;;;;;13.15;6.60;;;;;;;-147.65;100.00;57646.63;10364708;28;20439;-85
2023/07/02 00:49:04;;;;;;;14.05;6.35;;;;;;;-147.65;100.00;57646.63;10361443;28;20034;-84
2023/07/02 00:54:04;;;;;;;13.00;7.73;;;;;;;-147.65;100.00;57646.63;10360289;28;20038;-84
2023/07/02 00:59:06;;;;;;;18.33;9.50;;;;;;;-147.65;100.00;57646.63;10360728;28;20425;-83
2023/07/02 01:04:12;;;;;;;14.85;7.38;;;;;;;-147.65;100.00;57646.63;10362661;28;20449;-84
2023/07/02 01:09:13;;;;;;;16.23;8.88;;;;;;;-147.65;100.00;57646.63;10359477;28;20045;-84
2023/07/02 01:14:14;;;;;;;20.98;10.93;;;;;;;-147.65;100.00;57646.63;10360849;28;20044;-84
2023/07/02 01:19:50;;;;;;;16.30;8.75;;;;;;;-147.65;100.00;57646.63;10354852;28;20101;-84
2023/07/02 01:24:51;;;;;;;16.30;8.38;;;;;;;-147.65;100.00;57646.63;10362553;28;20409;-84
2023/07/02 01:29:52;;;;;;;15.77;9.25;;;;;;;-147.65;100.00;57646.63;10344406;28;20061;-83
2023/07/02 01:34:53;;;;;;;16.20;9.55;;;;;;;-147.65;100.00;57646.63;10360389;28;20069;-83
2023/07/02 01:39:53;;;;;;;25.73;12.95;;;;;;;-147.65;100.00;57646.63;10361172;28;20065;-83
2023/07/02 01:44:54;;;;;;;17.52;9.48;;;;;;;-147.65;100.00;57646.63;10361556;28;20458;-83
2023/07/02 01:49:54;;;;;;;27.98;13.85;;;;;;;-147.65;100.00;57646.63;10360664;28;21021;-83
2023/07/02 01:54:55;;;;;;;18.60;8.18;;;;;;;-147.65;100.00;57646.63;10359582;28;20040;-83
2023/07/02 01:59:55;;;;;;;25.10;12.60;;;;;;;-147.65;100.00;57646.63;10361656;28;20091;-83
2023/07/02 02:04:56;;;;;;;22.17;11.52;;;;;;;-147.65;100.00;57646.63;10360102;28;20397;-83
2023/07/02 02:09:57;;;;;;;26.10;11.32;;;;;;;-147.65;100.00;57646.63;10361337;28;20096;-82
2023/07/02 02:14:57;;;;;;;25.98;13.35;;;;;;;-147.65;100.00;57646.63;10341326;28;20092;-82
2023/07/02 02:19:58;;;;;;;23.40;11.68;;;;;;;-147.65;100.00;57646.63;10334921;28;20066;-82
2023/07/02 02:24:58;;;;;;;25.33;12.73;;;;;;;-147.65;100.00;57646.63;10346602;28;20040;-82
2023/07/02 02:29:59;;;;;;;25.40;13.15;;;;;;;-147.65;100.00;57646.63;10354755;28;20045;-83
2023/07/02 02:34:59;;;;;;;30.38;12.18;;;;;;;-147.65;100.00;57646.63;10355253;28;20057;-82
2023/07/02 02:40:00;;;;;;;26.27;13.20;;;;;;;-147.65;100.00;57646.63;10356217;28;20052;-82
2023/07/02 02:45:01;;;;;;;27.38;13.25;;;;;;;-147.65;100.00;57646.63;10355955;28;20482;-82
2023/07/02 02:50:01;;;;;;;27.63;12.63;;;;;;;-147.65;100.00;57646.63;10353779;28;20038;-81
2023/07/02 02:55:02;;;;;;;25.40;13.93;;;;;;;-147.65;100.00;57646.63;10362888;28;20056;-80
2023/07/02 03:00:03;;;;;;;28.60;14.32;;;;;;;-147.65;100.00;57646.63;10366483;28;20049;-82
2023/07/02 03:05:05;;;;;;;27.60;14.48;;;;;;;-147.65;100.00;57646.63;10364486;28;20091;-82
2023/07/02 03:10:06;;;;;;;35.42;15.23;;;;;;;-147.65;100.00;57646.63;10349655;28;20041;-82
2023/07/02 03:15:08;;;;;;;36.35;14.40;;;;;;;-147.65;100.00;57646.63;10354953;28;20077;-82
2023/07/02 03:20:08;;;;;;;25.13;13.20;;;;;;;-147.65;100.00;57646.63;10363182;28;20076;-83
2023/07/02 03:25:09;;;;;;;29.13;14.52;;;;;;;-147.65;100.00;57646.63;10352282;28;20393;-82
2023/07/02 03:30:10;;;;;;;29.75;15.50;;;;;;;-147.65;100.00;57646.63;10342507;28;20036;-82
2023/07/02 03:35:10;;;;;;;29.35;15.93;;;;;;;-147.65;100.00;57646.63;10332515;28;20161;-82
2023/07/02 03:40:11;;;;;;;32.92;17.58;;;;;;;-147.65;100.00;57646.63;10361863;28;20088;-83
2023/07/02 03:45:11;;;;;;;27.77;17.05;;;;;;;-147.65;100.00;57646.63;10348908;28;20444;-80
2023/07/02 03:50:12;;;;;;;33.67;15.73;;;;;;;-147.65;100.00;57646.63;10364967;28;20034;-83
2023/07/02 03:55:12;;;;;;;28.15;17.88;;;;;;;-147.65;100.00;57646.63;10380788;28;20034;-83
2023/07/02 04:00:13;;;;;;;30.67;17.75;;;;;;;-147.65;100.00;57646.63;10361770;28;20080;-83
2023/07/02 04:05:14;;;;;;;34.88;17.00;;;;;;;-147.65;100.00;57646.63;10351677;28;20057;-85
2023/07/02 04:10:14;;;;;;;36.72;19.13;;;;;;;-147.65;100.00;57646.63;10355008;28;20031;-87
2023/07/02 04:15:15;;;;;;;38.35;18.33;;;;;;;-147.65;100.00;57646.63;10352449;28;20034;-85
2023/07/02 04:20:15;;;;;;;37.67;19.02;;;;;;;-147.65;100.00;57646.63;10364218;28;20045;-86
2023/07/02 04:25:16;;;;;;;37.90;18.65;;;;;;;-147.65;100.00;57646.63;10351099;28;20085;-85
2023/07/02 04:30:17;;;;;;;49.15;20.88;;;;;;;-147.65;100.00;57646.63;10363488;28;20038;-85
2023/07/02 04:35:17;;;;;;;39.03;17.77;;;;;;;-147.65;100.00;57646.63;10363593;28;20061;-85
2023/07/02 04:40:18;;;;;;;48.55;24.02;;;;;;;-147.65;100.00;57646.63;10352643;28;20045;-84
2023/07/02 04:45:19;;;;;;;42.33;23.45;;;;;;;-147.65;100.00;57646.63;10356342;28;20040;-82
2023/07/02 04:50:19;;;;;;;53.75;22.73;;;;;;;-147.65;100.00;57646.63;10346175;28;20074;-82
2023/07/02 04:55:20;;;;;;;30.58;17.70;;;;;;;-147.65;100.00;57646.63;10360289;28;20060;-83
2023/07/02 05:00:22;;;;;;;35.78;20.10;;;;;;;-147.65;100.00;57646.63;10337266;28;20049;-83
2023/07/02 05:05:22;;;;;;;38.00;18.77;;;;;;;-147.65;100.00;57646.63;10338122;28;20041;-81
2023/07/02 05:10:23;;;;;;;38.22;22.05;;;;;;;-147.65;100.00;57646.63;10359143;28;20046;-82
2023/07/02 05:15:24;;;;;;;34.38;18.05;;;;;;;-147.65;100.00;57646.63;10357888;28;20491;-81
2023/07/02 05:20:27;;;;;;;36.70;21.33;;;;;;;-147.65;100.00;57646.63;10323489;28;20555;-82
2023/07/02 05:25:27;;;;;;;33.42;17.55;;;;;;;-147.65;100.00;57646.63;10355931;28;20091;-83
2023/07/02 05:30:28;;;;;;;31.38;20.75;;;;;;;-147.65;100.00;57646.63;10359435;28;20054;-82
2023/07/02 05:35:28;;;;;;;37.75;18.70;;;;;;;-147.65;100.00;57646.63;10358583;28;20045;-82
2023/07/02 05:40:29;;;;;;;32.40;16.38;;;;;;;-147.65;100.00;57646.63;10354739;28;20041;-82
2023/07/02 05:45:29;;;;;;;29.00;15.57;;;;;;;-147.65;100.00;57646.63;10374832;28;20129;-83
2023/07/02 05:50:30;;;;;;;25.92;15.10;;;;;;;-147.65;100.00;57646.63;10361239;28;20050;-82
2023/07/02 05:55:30;;;;;;;40.88;17.77;;;;;;;-147.65;100.00;57646.63;10357924;28;20038;-81
2023/07/02 06:00:31;;;;;;;29.75;16.23;;;;;;;-147.65;100.00;57646.63;10356597;28;20603;-82
2023/07/02 06:05:32;;;;;;;36.67;17.58;;;;;;;-147.65;100.00;57646.63;10362173;28;20040;-82
2023/07/02 06:10:32;;;;;;;39.45;18.88;;;;;;;-147.65;100.00;57646.63;10353866;28;20061;-81
2023/07/02 06:15:33;;;;;;;34.13;18.08;;;;;;;-147.65;100.00;57646.63;10358879;28;20030;-82
2023/07/02 06:20:33;;;;;;;27.08;16.67;;;;;;;-147.65;100.00;57646.63;10357796;28;20097;-81
2023/07/02 06:25:34;;;;;;;38.20;17.35;;;;;;;-147.65;100.00;57646.63;10358959;28;20045;-81
2023/07/02 06:30:34;;;;;;;38.83;16.83;;;;;;;-147.65;100.00;57646.63;10358943;28;20038;-81
2023/07/02 06:35:35;;;;;;;26.73;15.07;;;;;;;-147.65;100.00;57646.63;10357657;28;20087;-80
2023/07/02 06:40:35;;;;;;;27.17;15.13;;;;;;;-147.65;100.00;57646.63;10329320;28;20100;-81
2023/07/02 06:45:36;;;;;;;24.67;15.77;;;;;;;-147.65;100.00;57646.63;10356315;28;20057;-82
2023/07/02 06:50:36;;;;;;;27.63;15.20;;;;;;;-147.65;100.00;57646.63;10348948;28;20030;-80
2023/07/02 06:55:37;;;;;;;22.17;12.50;;;;;;;-147.65;100.00;57646.63;10343959;28;20037;-80
2023/07/02 07:00:38;;;;;;;23.93;13.80;;;;;;;-147.65;100.00;57646.63;10363808;28;20042;-82
2023/07/02 07:05:38;;;;;;;26.97;15.00;;;;;;;-147.65;100.00;57646.63;10338064;28;20050;-80
2023/07/02 07:10:39;;;;;;;22.23;12.00;;;;;;;-147.65;100.00;57646.63;10349388;28;20096;-82
2023/07/02 07:15:40;;;;;;;23.60;10.43;;;;;;;-147.65;100.00;57646.63;10357511;28;20359;-81
2023/07/02 07:20:41;;;;;;;22.27;14.73;;;;;;;-147.65;100.00;57646.63;10342049;28;20038;-81
2023/07/02 07:25:42;;;;;;;20.47;10.90;;;;;;;-147.65;100.00;57646.63;10324485;28;20049;-81
2023/07/02 07:30:42;;;;;;;22.90;11.38;;;;;;;-147.65;100.00;57646.63;10365144;28;20045;-83
2023/07/02 07:35:44;;;;;;;25.83;12.10;;;;;;;-147.65;100.00;57646.63;10386130;28;20053;-84
2023/07/02 07:40:45;;;;;;;26.23;10.77;;;;;;;-147.65;100.00;57646.63;10362234;28;20091;-86
2023/07/02 07:45:45;;;;;;;23.45;10.77;;;;;;;-147.65;100.00;57646.63;10366131;28;20044;-83
2023/07/02 07:50:46;;;;;;;24.05;10.98;;;;;;;-147.65;100.00;57646.63;10364684;28;20116;-81
2023/07/02 07:55:46;;;;;;;20.98;9.10;;;;;;;-147.65;100.00;57646.63;10365588;28;20044;-81
2023/07/02 08:00:47;;;;;;;19.50;11.18;;;;;;;-147.65;100.00;57646.63;10348886;28;20385;-79
2023/07/02 08:05:47;;;;;;;17.15;10.73;;;;;;;-147.65;100.00;57646.63;10349407;28;20045;-79
2023/07/02 08:10:49;;;;;;;21.40;9.75;;;;;;;-147.65;100.00;57646.63;10363701;28;20068;-81
2023/07/02 08:15:50;;;;;;;19.08;10.23;;;;;;;-147.65;100.00;57646.63;10361548;28;20487;-78
2023/07/02 08:20:50;;;;;;;26.60;12.32;;;;;;;-147.65;100.00;57646.63;10362833;28;20072;-79
2023/07/02 08:25:51;;;;;;;16.77;9.27;;;;;;;-147.65;100.00;57646.63;10350907;28;20398;-80
2023/07/02 08:30:51;;;;;;;24.27;12.05;;;;;;;-147.65;100.00;57646.63;10359860;28;20034;-80
2023/07/02 08:35:52;;;;;;;19.02;9.13;;;;;;;-147.65;100.00;57646.63;10361292;28;20052;-79
2023/07/02 08:40:53;;;;;;;19.23;8.30;;;;;;;-147.65;100.00;57646.63;10324319;28;20244;-79
2023/07/02 08:45:53;;;;;;;18.83;9.23;;;;;;;-147.65;100.00;57646.63;10329596;28;20056;-81
2023/07/02 08:50:54;;;;;;;14.95;6.63;;;;;;;-147.65;100.00;57646.63;10340017;28;20052;-82
2023/07/02 08:55:57;;;;;;;17.10;7.72;;;;;;;-147.65;100.00;57646.63;10364146;28;20052;-82
2023/07/02 09:01:09;;;;;;;15.07;7.55;;;;;;;-147.65;100.00;57646.63;10335400;28;20034;-82
2023/07/02 09:06:10;;;;;;;15.17;6.27;;;;;;;-147.65;100.00;57646.63;10361592;28;20052;-83
2023/07/02 09:11:12;;;;;;;16.67;6.10;;;;;;;-147.65;100.00;57646.63;10354593;28;20049;-82
2023/07/02 09:16:28;;;;;;;15.23;7.35;;;;;;;-147.65;100.00;57646.63;10362663;28;20049;-83
2023/07/02 09:21:42;;;;;;;10.48;6.18;;;;;;;-147.65;100.00;57646.63;10344138;28;20030;-82
2023/07/02 09:26:53;;;;;;;11.63;6.40;;;;;;;-147.65;100.00;57646.63;10345375;28;20044;-84
2023/07/02 09:31:54;;;;;;;12.25;6.53;;;;;;;-147.65;100.00;57646.63;10340382;28;20417;-90
2023/07/02 09:36:55;;;;;;;9.73;5.83;;;;;;;-147.65;100.00;57646.63;10343852;28;20042;-92
2023/07/02 09:41:57;;;;;;;14.77;7.45;;;;;;;-147.65;100.00;57646.63;10363997;28;20030;-93
2023/07/02 09:47:05;;;;;;;14.68;8.20;;;;;;;-147.65;100.00;57646.63;10365448;28;20034;-95
2023/07/02 09:52:09;;;;;;;15.13;9.38;;;;;;;-147.65;100.00;57646.63;10365122;28;20026;-94
2023/07/02 09:57:10;;;;;;;18.23;7.40;;;;;;;-147.65;100.00;57646.63;10333599;28;20037;-95
2023/07/02 10:02:10;;;;;;;16.23;7.90;;;;;;;-147.65;100.00;57646.63;10365932;28;20124;-91
2023/07/02 10:07:11;;;;;;;16.03;9.00;;;;;;;-147.65;100.00;57646.63;10345187;28;20042;-92
2023/07/02 10:12:18;;;;;;;14.43;7.97;;;;;;;-147.65;100.00;57646.63;10362297;28;20037;-88
2023/07/02 10:17:28;;;;;;;23.55;9.38;;;;;;;-147.65;100.00;57646.63;10342058;28;20474;-88
2023/07/02 10:22:29;;;;;;;17.55;9.48;;;;;;;-147.65;100.00;57646.63;10355338;28;20054;-89
2023/07/02 10:27:38;;;;;;;16.73;7.03;;;;;;;-147.65;100.00;57646.63;10357460;28;20466;-85
2023/07/02 10:32:39;;;;;;;16.10;8.40;;;;;;;-147.65;100.00;57646.63;10356733;28;20099;-84
2023/07/02 10:37:40;;;;;;;17.67;7.50;;;;;;;-147.65;100.00;57646.63;10359274;28;20045;-83
2023/07/02 10:42:47;;;;;;;23.23;9.43;;;;;;;-147.65;100.00;57646.63;10355739;28;20034;-90
2023/07/02 10:47:48;;;;;;;21.77;8.38;;;;;;;-147.65;100.00;57646.63;10361347;28;20068;-88
2023/07/02 10:52:51;;;;;;;15.37;9.77;;;;;;;-147.65;100.00;57646.63;10360437;28;20099;-88
2023/07/02 10:58:05;;;;;;;15.00;8.13;;;;;;;-147.65;100.00;57646.63;10359513;28;20034;-90
2023/07/02 11:03:24;;;;;;;18.38;8.02;;;;;;;-147.65;100.00;57646.63;10357363;28;20038;-90
2023/07/02 11:08:34;;;;;;;16.88;8.73;;;;;;;-147.65;100.00;57646.63;10328662;28;20116;-90
2023/07/02 11:13:52;;;;;;;20.30;8.18;;;;;;;-147.65;100.00;57646.63;10345357;28;20461;-89
2023/07/02 11:18:53;;;;;;;19.73;9.95;;;;;;;-147.65;100.00;57646.63;10352485;28;20038;-89
2023/07/02 11:24:02;;;;;;;17.42;8.02;;;;;;;-147.65;100.00;57646.63;10334581;28;20026;-89
2023/07/02 11:29:02;;;;;;;18.00;8.23;;;;;;;-147.65;100.00;57646.63;10351205;28;20030;-92
2023/07/02 11:34:14;;;;;;;16.27;8.63;;;;;;;-147.65;100.00;57646.63;10366796;28;20061;-90
2023/07/02 11:39:17;;;;;;;;;;;;;;;-147.65;100.00;57646.63;10365085;28;20030;-90
2023/07/02 11:44:18;;;;;;;18.90;9.23;;;;;;;-147.65;100.00;57646.63;10357518;28;19929;-87
2023/07/02 11:49:18;;;;;;;18.37;8.03;;;;;;;-147.65;100.00;57646.63;10348178;28;20490;-87
2023/07/02 11:54:19;;;;;;;19.27;9.80;;;;;;;-147.65;100.00;57646.63;10344972;28;20045;-87
2023/07/02 11:59:19;;;;;;;21.90;10.77;;;;;;;-147.65;100.00;57646.63;10354385;28;20056;-88
2023/07/02 12:04:20;;;;;;;17.87;9.37;;;;;;;-147.65;100.00;57646.63;10365361;28;20042;-88
2023/07/02 12:09:20;;;;;;;14.33;7.37;;;;;;;-147.65;100.00;57646.63;10366209;28;20192;-88
2023/07/02 12:14:21;;;;;;;15.33;9.13;;;;;;;-147.65;100.00;57646.63;10361458;28;20159;-89
2023/07/02 12:19:21;;;;;;;15.07;7.70;;;;;;;-147.65;100.00;57646.63;10363955;28;20048;-89
2023/07/02 12:24:22;;;;;;;22.70;9.57;;;;;;;-147.65;100.00;57646.63;10359064;28;20116;-92
2023/07/02 12:29:23;;;;;;;16.67;8.20;;;;;;;-147.65;100.00;57646.63;10320293;28;20129;-87
2023/07/02 12:34:24;;;;;;;;;;;;;;;-147.65;100.00;57646.63;10359696;28;20124;-84
2023/07/02 12:39:26;;;;;;;25.05;10.20;;;;;;;-147.65;100.00;57646.63;10362653;28;20080;-85
2023/07/02 12:44:27;;;;;;;;;;;;;;;-147.65;100.00;57646.63;10363342;28;20117;-81
2023/07/02 12:49:27;;;;;;;14.90;9.13;;;;;;;-147.65;100.00;57646.63;10364649;28;19922;-81
2023/07/02 12:54:28;;;;;;;16.03;9.17;;;;;;;-147.65;100.00;57646.63;10363654;28;20328;-83
2023/07/02 12:59:28;;;;;;;21.33;9.70;;;;;;;-147.65;100.00;57646.63;10364726;28;20037;-90
2023/07/02 13:04:29;;;;;;;23.87;10.00;;;;;;;-147.65;100.00;57646.63;10391715;28;20116;-81
2023/07/02 13:09:29;;;;;;;18.73;10.63;;;;;;;-147.65;100.00;57646.63;10361353;28;20459;-82
2023/07/02 13:14:30;;;;;;;19.20;9.17;;;;;;;-147.65;100.00;57646.63;10365028;28;20050;-82
2023/07/02 13:19:30;;;;;;;20.60;9.73;;;;;;;-147.65;100.00;57646.63;10361930;28;20494;-84
2023/07/02 13:24:35;;;;;;;17.60;11.50;;;;;;;-147.65;100.00;57646.63;10364001;28;20041;-83
2023/07/02 13:29:35;;;;;;;19.17;9.55;;;;;;;-147.65;100.00;57646.63;10346035;28;20033;-85
2023/07/02 13:34:36;;;;;;;23.63;11.53;;;;;;;-147.65;100.00;57646.63;10362999;28;20498;-84
2023/07/02 13:39:36;;;;;;;20.37;12.03;;;;;;;-147.65;100.00;57646.63;10359263;28;20048;-85
2023/07/02 13:44:37;;;;;;;17.37;9.93;;;;;;;-147.65;100.00;57646.63;10357618;28;20100;-84
2023/07/02 13:49:37;;;;;;;22.47;9.73;;;;;;;-147.65;100.00;57646.63;10324242;28;20039;-84
2023/07/02 13:54:38;;;;;;;21.47;11.23;;;;;;;-147.65;100.00;57646.63;10321114;28;20048;-84
2023/07/02 13:59:38;;;;;;;14.63;8.27;;;;;;;-147.65;100.00;57646.63;10319988;28;20054;-86
2023/07/02 14:04:39;;;;;;;15.50;9.33;;;;;;;-147.65;100.00;57646.63;10324316;28;20130;-84
2023/07/02 14:09:39;;;;;;;12.87;7.10;;;;;;;-147.65;100.00;57646.63;10330617;28;20121;-86
2023/07/02 14:14:40;;;;;;;21.83;8.63;;;;;;;-147.65;100.00;57646.63;10356373;28;20044;-86
2023/07/02 14:19:41;;;;;;;18.40;8.90;;;;;;;-147.65;100.00;57646.63;10361155;28;20044;-86
2023/07/02 14:24:41;;;;;;;16.77;8.30;;;;;;;-147.65;100.00;57646.63;10354551;28;20491;-84
2023/07/02 14:29:42;;;;;;;18.00;9.00;;;;;;;-147.65;100.00;57646.63;10355467;28;20096;-85
2023/07/02 14:34:42;;;;;;;16.43;9.03;;;;;;;-147.65;100.00;57646.63;10351141;28;20052;-81
2023/07/02 14:39:43;;;;;;;19.43;9.93;;;;;;;-147.65;100.00;57646.63;10353283;28;20057;-84
2023/07/02 14:44:43;;;;;;;19.97;9.47;;;;;;;-147.65;100.00;57646.63;10340382;28;20064;-81
2023/07/02 14:49:44;;;;;;;13.53;8.70;;;;;;;-147.65;100.00;57646.63;10357729;28;20125;-85
2023/07/02 14:54:44;;;;;;;17.97;6.87;;;;;;;-147.65;100.00;57646.63;10342036;28;20048;-82
2023/07/02 14:59:47;;;;;;;14.50;6.97;;;;;;;-147.65;100.00;57646.63;10359720;28;20442;-81
2023/07/02 15:04:47;;;;;;;17.35;7.35;;;;;;;-147.65;100.00;57646.63;10361364;28;20034;-82
2023/07/02 15:09:48;;;;;;;18.33;7.47;;;;;;;-147.65;100.00;57646.63;10359965;28;20573;-80
2023/07/02 15:14:48;;;;;;;18.40;8.57;;;;;;;-147.65;100.00;57646.63;10361433;28;20042;-80
2023/07/02 15:19:49;;;;;;;13.50;7.50;;;;;;;-147.65;100.00;57646.63;10358681;28;20482;-80
2023/07/02 15:24:49;;;;;;;16.00;7.43;;;;;;;-147.65;100.00;57646.63;10358479;28;20030;-78
2023/07/02 15:29:50;;;;;;;14.25;7.18;;;;;;;-147.65;100.00;57646.63;10355004;28;20060;-78
2023/07/02 15:34:51;;;;;;;15.20;7.03;;;;;;;-147.65;100.00;57646.63;10356332;28;20448;-78
2023/07/02 15:39:51;;;;;;;22.47;8.37;;;;;;;-147.65;100.00;57646.63;10357287;28;20099;-80
2023/07/02 15:44:52;;;;;;;18.40;9.50;;;;;;;-147.65;100.00;57646.63;10357420;28;20429;-80
2023/07/02 15:49:52;;;;;;;20.67;7.13;;;;;;;-147.65;100.00;57646.63;10358286;28;20125;-80
2023/07/02 15:54:53;;;;;;;18.40;8.53;;;;;;;-147.65;100.00;57646.63;10350751;28;20080;-78
2023/07/02 15:59:54;;;;;;;13.37;7.60;;;;;;;-147.65;100.00;57646.63;10361012;28;20143;-80
2023/07/02 16:04:55;;;;;;;13.18;7.38;;;;;;;-147.65;100.00;57646.63;10368101;28;20030;-79
2023/07/02 16:09:55;;;;;;;15.40;8.17;;;;;;;-147.65;100.00;57646.63;10363141;28;20152;-78
2023/07/02 16:14:56;;;;;;;15.80;8.60;;;;;;;-147.65;100.00;57646.63;10363710;28;20486;-78
2023/07/02 16:19:57;;;;;;;17.60;7.82;;;;;;;-147.65;100.00;57646.63;10353730;28;20066;-77
2023/07/02 16:24:57;;;;;;;16.73;7.93;;;;;;;-147.65;100.00;57646.63;10359625;28;20106;-78
2023/07/02 16:29:58;;;;;;;15.68;7.57;;;;;;;-147.65;100.00;57646.63;10362434;28;20133;-80
2023/07/02 16:34:58;;;;;;;16.13;6.80;;;;;;;-147.65;100.00;57646.63;10362654;28;20041;-79
2023/07/02 16:39:59;;;;;;;16.13;8.17;;;;;;;-147.65;100.00;57646.63;10344932;28;20038;-81
2023/07/02 16:45:05;;;;;;;16.97;7.50;;;;;;;-147.65;100.00;57646.63;10363725;28;20030;-83
2023/07/02 16:50:06;;;;;;;14.40;8.38;;;;;;;-147.65;100.00;57646.63;10366865;28;20390;-82
2023/07/02 16:55:07;;;;;;;19.20;8.65;;;;;;;-147.65;100.00;57646.63;10362614;28;20046;-83
2023/07/02 17:00:09;;;;;;;20.60;8.70;;;;;;;-147.65;100.00;57646.63;10361170;28;20048;-82
2023/07/02 17:05:10;;;;;;;18.35;8.30;;;;;;;-147.65;100.00;57646.63;10364299;28;20034;-82
2023/07/02 17:10:10;;;;;;;18.25;9.15;;;;;;;-147.65;100.00;57646.63;10361566;28;20068;-82
2023/07/02 17:15:11;;;;;;;12.57;7.97;;;;;;;-147.65;100.00;57646.63;10363932;28;20478;-81
2023/07/02 17:20:12;;;;;;;16.77;9.15;;;;;;;-147.65;100.00;57646.63;10362395;28;20473;-77
2023/07/02 17:25:13;;;;;;;17.95;7.95;;;;;;;-147.65;100.00;57646.63;10361042;28;20050;-81
2023/07/02 17:30:14;;;;;;;15.10;8.18;;;;;;;-147.65;100.00;57646.63;10361432;28;20034;-78
2023/07/02 17:35:14;;;;;;;16.73;9.20;;;;;;;-147.65;100.00;57646.63;10362757;28;20092;-80
2023/07/02 17:40:15;;;;;;;16.63;9.23;;;;;;;-147.65;100.00;57646.63;10361200;28;20057;-78
2023/07/02 17:45:17;;;;;;;17.80;7.78;;;;;;;-147.65;100.00;57646.63;10359948;28;20124;-77
2023/07/02 17:50:18;;;;;;;19.35;7.88;;;;;;;-147.65;100.00;57646.63;10362674;28;20029;-80
2023/07/02 17:55:18;;;;;;;18.10;10.70;;;;;;;-147.65;100.00;57646.63;10360995;28;20038;-78
2023/07/02 18:00:19;;;;;;;21.52;9.32;;;;;;;-147.65;100.00;57646.63;10355907;28;20054;-79
2023/07/02 18:05:21;;;;;;;25.65;9.63;;;;;;;-147.65;100.00;57646.63;10359665;28;20046;-79
2023/07/02 18:10:21;;;;;;;16.52;9.60;;;;;;;-147.65;100.00;57646.63;10361665;28;20050;-78
2023/07/02 18:15:22;;;;;;;23.77;9.23;;;;;;;-147.65;100.00;57646.63;10359038;28;20096;-79
2023/07/02 18:20:22;;;;;;;21.67;10.02;;;;;;;-147.65;100.00;57646.63;10361533;28;20076;-78
2023/07/02 18:25:23;;;;;;;17.77;9.05;;;;;;;-147.65;100.00;57646.63;10361099;28;20418;-78
2023/07/02 18:30:24;;;;;;;22.60;9.32;;;;;;;-147.65;100.00;57646.63;10360925;28;20038;-79
2023/07/02 18:35:24;;;;;;;19.73;10.85;;;;;;;-147.65;100.00;57646.63;10358774;28;20048;-79
2023/07/02 18:40:25;;;;;;;24.90;11.00;;;;;;;-147.65;100.00;57646.63;10352418;28;20132;-79
2023/07/02 18:45:25;;;;;;;15.07;8.38;;;;;;;-147.65;100.00;57646.63;10358968;28;20472;-79
2023/07/02 18:50:26;;;;;;;13.85;8.02;;;;;;;-147.65;100.00;57646.63;10358648;28;20046;-81
2023/07/02 18:55:26;;;;;;;21.98;9.70;;;;;;;-147.65;100.00;57646.63;10358200;28;20034;-79
2023/07/02 19:00:27;;;;;;;17.70;8.13;;;;;;;-147.65;100.00;57646.63;10322236;28;20035;-78
2023/07/02 19:05:27;;;;;;;20.98;8.00;;;;;;;-147.65;100.00;57646.63;10356217;28;20050;-78
2023/07/02 19:10:28;;;;;;;11.77;7.00;;;;;;;-147.65;100.00;57646.63;10359737;28;20492;-78
2023/07/02 19:15:29;;;;;;;14.32;7.03;;;;;;;-147.65;100.00;57646.63;10357286;28;20045;-78
2023/07/02 19:20:29;;;;;;;20.83;7.57;;;;;;;-147.65;100.00;57646.63;10359313;28;20042;-78
2023/07/02 19:25:30;;;;;;;17.30;8.35;;;;;;;-147.65;100.00;57646.63;10360192;28;20046;-78
2023/07/02 19:30:31;;;;;;;12.00;6.45;;;;;;;-147.65;100.00;57646.63;10357370;28;20390;-77
2023/07/02 19:35:32;;;;;;;14.07;7.03;;;;;;;-147.65;100.00;57646.63;10361623;28;20034;-78
2023/07/02 19:40:32;;;;;;;14.80;6.32;;;;;;;-147.65;100.00;57646.63;10364657;28;20062;-77
2023/07/02 19:45:35;;;;;;;14.45;6.75;;;;;;;-147.65;100.00;57646.63;10364476;28;20060;-78
2023/07/02 19:50:36;;;;;;;11.43;5.38;;;;;;;-147.65;100.00;57646.63;10365693;28;20065;-78
2023/07/02 19:55:38;;;;;;;18.35;10.45;;;;;;;-147.65;100.00;57646.63;10362586;28;20371;-78
2023/07/02 20:00:41;;;;;;;14.52;7.60;;;;;;;-147.65;100.00;57646.63;10330860;28;20038;-78
2023/07/02 20:05:42;;;;;;;17.38;7.28;;;;;;;-147.65;100.00;57646.63;10346607;28;20045;-78
2023/07/02 20:10:42;;;;;;;10.07;6.60;;;;;;;-147.65;100.00;57646.63;10365952;28;20394;-78
2023/07/02 20:15:43;;;;;;;20.05;7.22;;;;;;;-147.65;100.00;57646.63;10356071;28;20033;-78
2023/07/02 20:20:44;;;;;;;13.80;7.55;;;;;;;-147.65;100.00;57646.63;10363462;28;20136;-78
2023/07/02 20:25:44;;;;;;;18.85;6.85;;;;;;;-147.65;100.00;57646.63;10363663;28;20038;-78
2023/07/02 20:30:45;;;;;;;17.17;7.72;;;;;;;-147.65;100.00;57646.63;10359756;28;20099;-78
2023/07/02 20:35:45;;;;;;;16.02;7.05;;;;;;;-147.65;100.00;57646.63;10362726;28;20042;-78
2023/07/02 20:41:01;;;;;;;12.68;7.47;;;;;;;-147.65;100.00;57646.63;10364967;28;20513;-77
2023/07/02 20:46:04;;;;;;;15.32;6.50;;;;;;;-147.65;100.00;57646.63;10360125;28;20037;-78
2023/07/02 20:51:04;;;;;;;15.02;6.18;;;;;;;-147.65;100.00;57646.63;10321092;28;20070;-78
2023/07/02 20:56:05;;;;;;;20.00;6.43;;;;;;;-147.65;100.00;57646.63;10349626;28;20409;-79
2023/07/02 21:01:06;;;;;;;12.50;6.15;;;;;;;-147.65;100.00;57646.63;10345455;28;20061;-79
2023/07/02 21:06:08;;;;;;;12.73;4.13;;;;;;;-147.65;100.00;57646.63;10331191;28;20096;-78
2023/07/02 21:11:08;;;;;;;14.35;3.97;;;;;;;-147.65;100.00;57646.63;10348033;28;20038;-78
2023/07/02 21:16:09;;;;;;;13.82;3.90;;;;;;;-147.65;100.00;57646.63;10318276;28;20055;-77
2023/07/02 21:21:09;;;;;;;12.43;4.47;;;;;;;-147.65;100.00;57646.63;10347300;28;20124;-76
2023/07/02 21:26:10;;;;;;;12.90;3.72;;;;;;;-147.65;100.00;57646.63;10360338;28;20065;-78
2023/07/02 21:31:13;;;;;;;9.45;3.65;;;;;;;-147.65;100.00;57646.63;10358848;28;20413;-78
2023/07/02 21:36:15;;;;;;;14.23;3.60;;;;;;;-147.65;100.00;57646.63;10360402;28;20363;-77
2023/07/02 21:41:16;;;;;;;6.80;2.88;;;;;;;-147.65;100.00;57646.63;10358887;28;20121;-78
2023/07/02 21:46:17;;;;;;;11.30;3.53;;;;;;;-147.65;100.00;57646.63;10353835;28;20037;-77
2023/07/02 21:51:19;;;;;;;14.03;4.00;;;;;;;-147.65;100.00;57646.63;10362456;28;20394;-79
2023/07/02 21:56:25;;;;;;;13.07;5.30;;;;;;;-147.65;100.00;57646.63;10344636;28;20072;-79
2023/07/02 22:01:26;;;;;;;15.20;4.72;;;;;;;-147.65;100.00;57646.63;10361899;28;20050;-79
2023/07/02 22:06:26;;;;;;;11.75;4.88;;;;;;;-147.65;100.00;57646.63;10342181;28;20121;-79
2023/07/02 22:11:27;;;;;;;12.52;3.75;;;;;;;-147.65;100.00;57646.63;10360191;28;20041;-80
2023/07/02 22:16:29;;;;;;;17.48;6.80;;;;;;;-147.65;100.00;57646.63;10358600;28;20052;-79